createdAt,value
2023-08-07T00:00:29.057Z,100.00
2023-08-07T00:03:26.063Z,100.00
2023-08-07T00:06:18.057Z,100.00
2023-08-07T00:09:10.064Z,100.00
2023-08-07T00:11:55.085Z,100.00
2023-08-07T00:14:47.060Z,100.00
2023-08-07T00:17:32.463Z,100.00
2023-08-07T00:20:24.062Z,100.00
2023-08-07T00:23:09.341Z,100.00
2023-08-07T00:26:01.086Z,100.00
2023-08-07T00:28:46.173Z,100.00
2023-08-07T00:31:39.102Z,100.00
2023-08-07T00:34:23.999Z,100.00
2023-08-07T00:37:15.054Z,100.00
2023-08-07T00:40:00.198Z,100.00
2023-08-07T00:42:52.052Z,100.00
2023-08-07T00:45:44.542Z,100.00
2023-08-07T00:48:37.064Z,100.00
2023-08-07T00:51:30.090Z,100.00
2023-08-07T00:54:20.460Z,100.00
2023-08-07T00:57:20.079Z,100.00
2023-08-07T01:00:05.861Z,100.00
2023-08-07T01:02:59.216Z,100.00
2023-08-07T01:05:51.310Z,100.00
2023-08-07T01:08:50.079Z,100.00
2023-08-07T01:12:03.081Z,100.00
2023-08-07T01:14:51.721Z,100.00
2023-08-07T01:17:43.103Z,100.00
2023-08-07T01:20:28.459Z,100.00
2023-08-07T01:23:20.110Z,100.00
2023-08-07T01:26:05.157Z,100.00
2023-08-07T01:29:06.076Z,100.00
2023-08-07T01:31:54.587Z,100.00
2023-08-07T01:34:49.074Z,100.00
2023-08-07T01:37:37.555Z,100.00
2023-08-07T01:40:30.085Z,100.00
2023-08-07T01:43:22.096Z,100.00
2023-08-07T01:46:07.772Z,100.00
2023-08-07T01:48:59.080Z,100.00
2023-08-07T01:51:44.068Z,100.00
2023-08-07T01:54:35.086Z,100.00
2023-08-07T01:57:27.094Z,100.00
2023-08-07T02:00:19.094Z,100.00
2023-08-07T02:03:04.539Z,100.00
2023-08-07T02:06:03.146Z,100.00
2023-08-07T02:08:48.339Z,100.00
2023-08-07T02:11:40.101Z,100.00
2023-08-07T02:14:25.259Z,100.00
2023-08-07T02:17:17.118Z,100.00
2023-08-07T02:20:02.198Z,100.00
2023-08-07T02:22:54.134Z,100.00
2023-08-07T02:25:39.233Z,100.00
2023-08-07T02:28:31.105Z,100.00
2023-08-07T02:31:23.123Z,100.00
2023-08-07T02:34:08.198Z,100.00
2023-08-07T02:37:00.110Z,100.00
2023-08-07T02:39:45.272Z,100.00
2023-08-07T02:42:36.115Z,100.00
2023-08-07T02:45:21.282Z,100.00
2023-08-07T02:48:13.112Z,100.00
2023-08-07T02:50:58.079Z,100.00
2023-08-07T02:53:50.095Z,100.00
2023-08-07T02:56:35.287Z,100.00
2023-08-07T02:59:27.103Z,100.00
2023-08-07T03:02:12.236Z,100.00
2023-08-07T03:05:04.147Z,100.00
2023-08-07T03:07:55.315Z,100.00
2023-08-07T03:10:47.115Z,100.00
2023-08-07T03:13:31.997Z,100.00
2023-08-07T03:16:24.161Z,100.00
2023-08-07T03:19:09.073Z,100.00
2023-08-07T03:22:01.128Z,100.00
2023-08-07T03:24:49.517Z,100.00
2023-08-07T03:27:41.136Z,100.00
2023-08-07T03:30:26.147Z,100.00
2023-08-07T03:33:18.127Z,100.00
2023-08-07T03:36:03.240Z,100.00
2023-08-07T03:38:55.129Z,100.00
2023-08-07T03:41:40.145Z,100.00
2023-08-07T03:44:32.107Z,100.00
2023-08-07T03:47:17.385Z,100.00
2023-08-07T03:50:09.124Z,100.00
2023-08-07T03:52:54.084Z,100.00
2023-08-07T03:55:45.117Z,100.00
2023-08-07T03:58:37.135Z,100.00
2023-08-07T04:01:29.236Z,100.00
2023-08-07T04:04:21.121Z,100.00
2023-08-07T04:07:19.138Z,100.00
2023-08-07T04:10:04.115Z,100.00
2023-08-07T04:12:56.138Z,100.00
2023-08-07T04:15:48.136Z,100.00
2023-08-07T04:18:40.122Z,100.00
2023-08-07T04:21:32.135Z,100.00
2023-08-07T04:24:17.353Z,100.00
2023-08-07T04:27:09.133Z,100.00
2023-08-07T04:29:54.541Z,100.00
2023-08-07T04:32:46.196Z,100.00
2023-08-07T04:35:31.814Z,100.00
2023-08-07T04:38:24.150Z,100.00
2023-08-07T04:41:09.511Z,100.00
2023-08-07T04:44:01.128Z,100.00
2023-08-07T04:46:46.366Z,100.00
2023-08-07T04:49:38.128Z,100.00
2023-08-07T04:52:30.324Z,100.00
2023-08-07T04:55:15.620Z,100.00
2023-08-07T04:58:07.175Z,100.00
2023-08-07T05:00:59.775Z,100.00
2023-08-07T05:03:51.253Z,100.00
2023-08-07T05:06:49.850Z,100.00
2023-08-07T05:09:49.133Z,100.00
2023-08-07T05:12:47.160Z,100.00
2023-08-07T05:15:46.142Z,100.00
2023-08-07T05:18:32.077Z,100.00
2023-08-07T05:21:24.153Z,100.00
2023-08-07T05:24:09.193Z,100.00
2023-08-07T05:27:01.164Z,100.00
2023-08-07T05:29:53.136Z,100.00
2023-08-07T05:32:40.995Z,100.00
2023-08-07T05:35:32.148Z,100.00
2023-08-07T05:38:17.287Z,100.00
2023-08-07T05:41:09.158Z,100.00
2023-08-07T05:43:54.282Z,100.00
2023-08-07T05:46:46.159Z,100.00
2023-08-07T05:49:37.154Z,100.00
2023-08-07T05:52:22.023Z,100.00
2023-08-07T05:55:14.155Z,100.00
2023-08-07T05:58:06.163Z,100.00
2023-08-07T06:00:58.193Z,100.00
2023-08-07T06:03:49.247Z,100.00
2023-08-07T06:06:40.695Z,100.00
2023-08-07T06:09:32.170Z,100.00
2023-08-07T06:12:17.487Z,100.00
2023-08-07T06:15:09.157Z,100.00
2023-08-07T06:18:01.221Z,100.00
2023-08-07T06:20:53.159Z,100.00
2023-08-07T06:23:38.737Z,100.00
2023-08-07T06:26:31.158Z,100.00
2023-08-07T06:29:16.298Z,100.00
2023-08-07T06:32:08.191Z,100.00
2023-08-07T06:34:54.145Z,100.00
2023-08-07T06:37:46.175Z,100.00
2023-08-07T06:40:38.169Z,100.00
2023-08-07T06:43:23.084Z,100.00
2023-08-07T06:46:15.274Z,100.00
2023-08-07T06:49:00.134Z,100.00
2023-08-07T06:51:51.182Z,100.00
2023-08-07T06:54:42.168Z,100.00
2023-08-07T06:57:27.383Z,100.00
2023-08-07T07:00:19.173Z,100.00
2023-08-07T07:03:12.188Z,100.00
2023-08-07T07:06:04.230Z,100.00
2023-08-07T07:09:03.187Z,100.00
2023-08-07T07:11:48.031Z,100.00
2023-08-07T07:14:41.200Z,100.00
2023-08-07T07:17:26.473Z,100.00
2023-08-07T07:20:18.183Z,100.00
2023-08-07T07:23:03.331Z,100.00
2023-08-07T07:25:55.181Z,100.00
2023-08-07T07:28:40.359Z,100.00
2023-08-07T07:31:32.244Z,100.00
2023-08-07T07:34:17.563Z,100.00
2023-08-07T07:37:09.190Z,100.00
2023-08-07T07:39:54.276Z,100.00
2023-08-07T07:42:46.195Z,100.00
2023-08-07T07:45:31.137Z,100.00
2023-08-07T07:48:22.197Z,100.00
2023-08-07T07:51:13.202Z,100.00
2023-08-07T07:54:14.718Z,100.00
2023-08-07T07:57:07.229Z,100.00
2023-08-07T07:59:59.192Z,100.00
2023-08-07T08:02:50.207Z,100.00
2023-08-07T08:05:42.275Z,100.00
2023-08-07T08:08:41.230Z,100.00
2023-08-07T08:11:26.355Z,100.00
2023-08-07T08:14:18.208Z,100.00
2023-08-07T08:17:10.225Z,100.00
2023-08-07T08:19:55.412Z,100.00
2023-08-07T08:22:47.213Z,100.00
2023-08-07T08:25:33.780Z,100.00
2023-08-07T08:28:26.209Z,100.00
2023-08-07T08:31:17.252Z,100.00
2023-08-07T08:34:09.217Z,100.00
2023-08-07T08:37:01.215Z,100.00
2023-08-07T08:39:53.216Z,100.00
2023-08-07T08:42:40.302Z,100.00
2023-08-07T08:45:33.216Z,100.00
2023-08-07T08:48:24.718Z,100.00
2023-08-07T08:51:19.196Z,100.00
2023-08-07T08:54:11.209Z,100.00
2023-08-07T08:56:58.341Z,100.00
2023-08-07T08:59:51.224Z,100.00
2023-08-07T09:02:43.238Z,100.00
2023-08-07T09:05:35.237Z,100.00
2023-08-07T09:08:27.306Z,100.00
2023-08-07T09:11:20.204Z,100.00
2023-08-07T09:14:12.241Z,100.00
2023-08-07T09:17:06.245Z,100.00
2023-08-07T09:19:59.226Z,100.00
2023-08-07T09:22:44.503Z,100.00
2023-08-07T09:25:40.235Z,100.00
2023-08-07T09:28:25.322Z,100.00
2023-08-07T09:31:22.293Z,100.00
2023-08-07T09:34:14.232Z,100.00
2023-08-07T09:36:59.343Z,100.00
2023-08-07T09:39:51.222Z,100.00
2023-08-07T09:42:38.648Z,100.00
2023-08-07T09:45:32.250Z,100.00
2023-08-07T09:48:29.314Z,100.00
2023-08-07T09:51:21.419Z,100.00
2023-08-07T09:54:06.345Z,100.00
2023-08-07T09:57:04.301Z,100.00
2023-08-07T09:59:57.243Z,100.00
2023-08-07T10:02:43.605Z,100.00
2023-08-07T10:05:35.241Z,100.00
2023-08-07T10:08:26.628Z,100.00
2023-08-07T10:11:19.252Z,100.00
2023-08-07T10:14:11.333Z,100.00
2023-08-07T10:16:56.938Z,100.00
2023-08-07T10:19:49.262Z,100.00
2023-08-07T10:22:37.677Z,100.00
2023-08-07T10:25:31.247Z,100.00
2023-08-07T10:28:20.604Z,100.00
2023-08-07T10:31:14.271Z,100.00
2023-08-07T10:33:59.596Z,100.00
2023-08-07T10:36:51.252Z,100.00
2023-08-07T10:39:36.648Z,100.00
2023-08-07T10:42:29.230Z,100.00
2023-08-07T10:45:17.524Z,100.00
2023-08-07T10:48:09.319Z,100.00
2023-08-07T10:51:03.718Z,100.00
2023-08-07T10:53:58.250Z,100.00
2023-08-07T10:56:45.129Z,100.00
2023-08-07T10:59:37.256Z,98.81
2023-08-07T11:02:27.403Z,100.00
2023-08-07T11:05:20.296Z,100.00
2023-08-07T11:08:12.335Z,100.00
2023-08-07T11:11:11.263Z,99.13
2023-08-07T11:13:56.607Z,100.00
2023-08-07T11:16:49.321Z,100.00
2023-08-07T11:19:41.259Z,100.00
2023-08-07T11:22:32.311Z,100.00
2023-08-07T11:25:24.297Z,100.00
2023-08-07T11:28:09.578Z,100.00
2023-08-07T11:31:03.359Z,100.00
2023-08-07T11:33:51.417Z,96.33
2023-08-07T11:36:50.280Z,93.99
2023-08-07T11:39:42.929Z,100.00
2023-08-07T11:42:35.270Z,100.00
2023-08-07T11:45:20.530Z,100.00
2023-08-07T11:48:12.281Z,100.00
2023-08-07T11:51:05.318Z,100.00
2023-08-07T11:53:50.533Z,100.00
2023-08-07T11:56:42.286Z,100.00
2023-08-07T11:59:27.481Z,100.00
2023-08-07T12:02:19.302Z,100.00
2023-08-07T12:05:04.820Z,100.00
2023-08-07T12:08:03.303Z,100.00
2023-08-07T12:10:54.489Z,100.00
2023-08-07T12:13:48.271Z,100.00
2023-08-07T12:16:43.282Z,100.00
2023-08-07T12:19:37.893Z,99.20
2023-08-07T12:22:29.294Z,100.00
2023-08-07T12:25:20.290Z,99.26
2023-08-07T12:28:05.321Z,94.76
2023-08-07T12:30:58.392Z,92.46
2023-08-07T12:33:43.702Z,94.53
2023-08-07T12:36:35.300Z,94.72
2023-08-07T12:45:10.297Z,92.82
2023-08-07T12:47:55.178Z,98.31
2023-08-07T12:50:48.309Z,95.71
2023-08-07T12:53:33.554Z,97.56
2023-08-07T12:56:25.303Z,100.00
2023-08-07T12:59:10.518Z,100.00
2023-08-07T13:02:02.307Z,100.00
2023-08-07T13:04:47.595Z,100.00
2023-08-07T13:07:46.312Z,100.00
2023-08-07T13:10:32.443Z,100.00
2023-08-07T13:13:24.319Z,100.00
2023-08-07T13:16:09.361Z,100.00
2023-08-07T13:19:00.596Z,100.00
2023-08-07T13:21:46.201Z,100.00
2023-08-07T13:24:38.314Z,100.00
2023-08-07T13:27:23.475Z,100.00
2023-08-07T13:30:16.305Z,100.00
2023-08-07T13:33:01.462Z,100.00
2023-08-07T13:35:53.349Z,100.00
2023-08-07T13:38:38.487Z,100.00
2023-08-07T13:41:30.340Z,100.00
2023-08-07T13:44:17.556Z,97.54
2023-08-07T13:47:09.320Z,99.73
2023-08-07T13:49:55.570Z,100.00
2023-08-07T13:52:48.460Z,100.00
2023-08-07T13:55:37.170Z,100.00
2023-08-07T13:58:28.332Z,100.00
2023-08-07T14:01:13.701Z,100.00
2023-08-07T14:04:05.313Z,100.00
2023-08-07T14:07:03.349Z,100.00
2023-08-07T14:09:55.460Z,100.00
2023-08-07T14:12:47.343Z,100.00
2023-08-07T14:15:32.292Z,100.00
2023-08-07T14:18:24.353Z,100.00
2023-08-07T14:21:09.937Z,100.00
2023-08-07T14:24:02.326Z,100.00
2023-08-07T14:26:54.344Z,100.00
2023-08-07T14:29:39.535Z,100.00
2023-08-07T14:32:31.395Z,100.00
2023-08-07T14:35:16.327Z,100.00
2023-08-07T14:38:08.351Z,100.00
2023-08-07T14:40:54.517Z,100.00
2023-08-07T14:43:46.330Z,100.00
2023-08-07T14:46:31.568Z,100.00
2023-08-07T14:49:23.357Z,100.00
2023-08-07T14:52:08.513Z,100.00
2023-08-07T14:55:03.360Z,100.00
2023-08-07T14:57:48.421Z,100.00
2023-08-07T15:00:40.372Z,100.00
2023-08-07T15:03:25.445Z,100.00
2023-08-07T15:06:17.350Z,100.00
2023-08-07T15:09:10.104Z,100.00
2023-08-07T15:12:01.595Z,100.00
2023-08-07T15:14:47.178Z,100.00
2023-08-07T15:17:39.418Z,100.00
2023-08-07T15:20:25.411Z,100.00
2023-08-07T15:23:17.383Z,100.00
2023-08-07T15:26:02.316Z,100.00
2023-08-07T15:28:54.353Z,100.00
2023-08-07T15:31:39.397Z,100.00
2023-08-07T15:34:31.358Z,100.00
2023-08-07T15:37:16.262Z,100.00
2023-08-07T15:40:08.400Z,100.00
2023-08-07T15:42:53.490Z,100.00
2023-08-07T15:45:45.429Z,100.00
2023-08-07T15:48:30.831Z,100.00
2023-08-07T15:51:22.424Z,100.00
2023-08-07T15:54:07.472Z,100.00
2023-08-07T15:56:59.641Z,100.00
2023-08-07T15:59:44.989Z,99.07
2023-08-07T16:02:36.439Z,100.00
2023-08-07T16:05:22.123Z,99.24
2023-08-07T16:08:13.366Z,99.79
2023-08-07T16:10:58.849Z,100.00
2023-08-07T16:13:50.378Z,98.13
2023-08-07T16:16:42.390Z,100.00
2023-08-07T16:19:27.893Z,100.00
2023-08-07T16:22:19.421Z,99.10
2023-08-07T16:25:07.527Z,100.00
2023-08-07T16:27:59.397Z,100.00
2023-08-07T16:30:44.573Z,100.00
2023-08-07T16:33:36.376Z,100.00
2023-08-07T16:36:21.602Z,100.00
2023-08-07T16:39:13.376Z,100.00
2023-08-07T16:41:58.294Z,100.00
2023-08-07T16:44:49.392Z,100.00
2023-08-07T16:47:34.570Z,100.00
2023-08-07T16:50:26.394Z,100.00
2023-08-07T16:53:12.530Z,100.00
2023-08-07T16:56:04.390Z,100.00
2023-08-07T16:58:51.302Z,100.00
2023-08-07T17:01:43.405Z,100.00
2023-08-07T17:04:30.740Z,100.00
2023-08-07T17:07:29.403Z,100.00
2023-08-07T17:10:17.146Z,100.00
2023-08-07T17:13:08.389Z,100.00
2023-08-07T17:15:53.670Z,100.00
2023-08-07T17:18:45.392Z,100.00
2023-08-07T17:21:30.623Z,100.00
2023-08-07T17:24:22.392Z,100.00
2023-08-07T17:27:07.327Z,100.00
2023-08-07T17:30:00.420Z,100.00
2023-08-07T17:32:45.484Z,100.00
2023-08-07T17:35:38.424Z,100.00
2023-08-07T17:38:30.396Z,100.00
2023-08-07T17:41:15.719Z,100.00
2023-08-07T17:44:07.589Z,100.00
2023-08-07T17:47:00.660Z,100.00
2023-08-07T17:49:52.403Z,100.00
2023-08-07T17:52:38.753Z,100.00
2023-08-07T17:55:31.476Z,100.00
2023-08-07T17:58:16.502Z,100.00
2023-08-07T18:01:08.495Z,100.00
2023-08-07T18:04:03.401Z,100.00
2023-08-07T18:07:09.509Z,100.00
2023-08-07T18:10:01.419Z,100.00
2023-08-07T18:12:46.398Z,100.00
2023-08-07T18:15:37.434Z,100.00
2023-08-07T18:18:22.538Z,100.00
2023-08-07T18:21:14.423Z,100.00
2023-08-07T18:23:59.884Z,100.00
2023-08-07T18:26:52.429Z,100.00
2023-08-07T18:29:37.365Z,100.00
2023-08-07T18:32:29.476Z,100.00
2023-08-07T18:35:15.318Z,100.00
2023-08-07T18:38:06.420Z,100.00
2023-08-07T18:40:58.450Z,100.00
2023-08-07T18:43:43.353Z,100.00
2023-08-07T18:46:35.456Z,100.00
2023-08-07T18:49:21.894Z,100.00
2023-08-07T18:52:13.452Z,100.00
2023-08-07T18:55:05.477Z,100.00
2023-08-07T18:57:57.458Z,100.00
2023-08-07T19:00:42.808Z,100.00
2023-08-07T19:03:34.528Z,100.00
2023-08-07T19:06:19.574Z,100.00
2023-08-07T19:09:18.435Z,100.00
2023-08-07T19:12:03.469Z,100.00
2023-08-07T19:14:55.443Z,100.00
2023-08-07T19:17:40.620Z,100.00
2023-08-07T19:20:31.435Z,100.00
2023-08-07T19:23:16.465Z,100.00
2023-08-07T19:26:08.443Z,100.00
2023-08-07T19:29:00.434Z,100.00
2023-08-07T19:31:45.525Z,100.00
2023-08-07T19:34:37.466Z,100.00
2023-08-07T19:37:23.193Z,100.00
2023-08-07T19:40:15.441Z,100.00
2023-08-07T19:43:00.360Z,100.00
2023-08-07T19:45:51.481Z,100.00
2023-08-07T19:48:38.428Z,100.00
2023-08-07T19:51:30.459Z,100.00
2023-08-07T19:54:15.281Z,100.00
2023-08-07T19:57:06.463Z,100.00
2023-08-07T19:59:51.452Z,100.00
2023-08-07T20:02:43.485Z,100.00
2023-08-07T20:05:34.471Z,100.00
2023-08-07T20:08:25.485Z,100.00
2023-08-07T20:11:23.461Z,100.00
2023-08-07T20:14:08.543Z,100.00
2023-08-07T20:17:00.464Z,100.00
2023-08-07T20:19:54.456Z,100.00
2023-08-07T20:22:42.788Z,100.00
2023-08-07T20:25:34.559Z,100.00
2023-08-07T20:28:19.392Z,100.00
2023-08-07T20:31:11.500Z,100.00
2023-08-07T20:33:59.340Z,100.00
2023-08-07T20:36:50.473Z,100.00
2023-08-07T20:39:35.708Z,100.00
2023-08-07T20:42:27.467Z,100.00
2023-08-07T20:45:12.390Z,100.00
2023-08-07T20:48:03.497Z,100.00
2023-08-07T20:50:48.352Z,100.00
2023-08-07T20:53:39.456Z,100.00
2023-08-07T20:56:24.967Z,100.00
2023-08-07T20:59:16.474Z,100.00
2023-08-07T21:02:01.741Z,100.00
2023-08-07T21:04:53.519Z,100.00
2023-08-07T21:07:45.501Z,100.00
2023-08-07T21:10:43.475Z,100.00
2023-08-07T21:13:35.464Z,100.00
2023-08-07T21:16:20.521Z,100.00
2023-08-07T21:19:12.480Z,100.00
2023-08-07T21:21:57.857Z,100.00
2023-08-07T21:24:49.479Z,100.00
2023-08-07T21:27:34.953Z,100.00
2023-08-07T21:30:26.485Z,100.00
2023-08-07T21:33:11.846Z,100.00
2023-08-07T21:36:03.484Z,100.00
2023-08-07T21:38:48.565Z,100.00
2023-08-07T21:41:39.485Z,100.00
2023-08-07T21:44:24.724Z,100.00
2023-08-07T21:47:16.506Z,100.00
2023-08-07T21:50:01.854Z,100.00
2023-08-07T21:52:53.479Z,100.00
2023-08-07T21:55:45.503Z,100.00
2023-08-07T21:58:30.374Z,100.00
2023-08-07T22:01:22.616Z,100.00
2023-08-07T22:04:14.480Z,100.00
2023-08-07T22:07:05.508Z,100.00
2023-08-07T22:09:57.531Z,100.00
2023-08-07T22:12:49.481Z,100.00
2023-08-07T22:15:41.506Z,100.00
2023-08-07T22:18:26.946Z,100.00
2023-08-07T22:21:19.521Z,100.00
2023-08-07T22:24:11.493Z,100.00
2023-08-07T22:26:56.637Z,100.00
2023-08-07T22:29:48.505Z,100.00
2023-08-07T22:32:39.627Z,100.00
2023-08-07T22:35:24.965Z,100.00
2023-08-07T22:38:16.511Z,100.00
2023-08-07T22:41:08.526Z,100.00
2023-08-07T22:43:53.748Z,100.00
2023-08-07T22:46:45.522Z,100.00
2023-08-07T22:49:31.078Z,100.00
2023-08-07T22:52:22.526Z,100.00
2023-08-07T22:55:08.231Z,100.00
2023-08-07T22:57:59.509Z,100.00
2023-08-07T23:00:44.696Z,100.00
2023-08-07T23:03:36.556Z,100.00
2023-08-07T23:06:21.695Z,100.00
2023-08-07T23:09:13.518Z,100.00
2023-08-07T23:11:58.985Z,100.00
2023-08-07T23:14:50.533Z,100.00
2023-08-07T23:17:35.558Z,100.00
2023-08-07T23:20:27.522Z,100.00
2023-08-07T23:23:12.696Z,100.00
2023-08-07T23:26:04.536Z,100.00
2023-08-07T23:28:49.437Z,100.00
2023-08-07T23:31:40.591Z,100.00
2023-08-07T23:34:25.824Z,100.00
2023-08-07T23:37:17.509Z,100.00
2023-08-07T23:40:02.312Z,100.00
2023-08-07T23:42:54.509Z,100.00
2023-08-07T23:45:39.558Z,100.00
2023-08-07T23:48:31.525Z,100.00
2023-08-07T23:51:23.551Z,100.00
2023-08-07T23:54:14.534Z,100.00
2023-08-07T23:56:59.984Z,100.00
2023-08-07T23:59:51.533Z,100.00
